sensor_id;sensor_type;location;lat;lon;timestamp;P1;durP1;ratioP1;P2;durP2;ratioP2
26920;SDS011;14483;47.844;9.660;2024-02-21T00:00:35;4.10;;;1.15;;
26920;SDS011;14483;47.844;9.660;2024-02-21T00:03:03;3.08;;;1.20;;
26920;SDS011;14483;47.844;9.660;2024-02-21T00:05:29;5.78;;;1.08;;
26920;SDS011;14483;47.844;9.660;2024-02-21T00:07:57;3.35;;;0.93;;
26920;SDS011;14483;47.844;9.660;2024-02-21T00:10:25;3.58;;;0.90;;
26920;SDS011;14483;47.844;9.660;2024-02-21T00:12:51;5.22;;;1.05;;
26920;SDS011;14483;47.844;9.660;2024-02-21T00:15:18;6.22;;;0.82;;
26920;SDS011;14483;47.844;9.660;2024-02-21T00:17:44;6.45;;;1.20;;
26920;SDS011;14483;47.844;9.660;2024-02-21T00:20:11;2.95;;;0.80;;
26920;SDS011;14483;47.844;9.660;2024-02-21T00:22:37;2.25;;;0.75;;
26920;SDS011;14483;47.844;9.660;2024-02-21T00:25:03;7.32;;;1.10;;
26920;SDS011;14483;47.844;9.660;2024-02-21T00:27:31;3.75;;;1.10;;
26920;SDS011;14483;47.844;9.660;2024-02-21T00:29:58;1.85;;;0.73;;
26920;SDS011;14483;47.844;9.660;2024-02-21T00:32:24;5.70;;;0.95;;
26920;SDS011;14483;47.844;9.660;2024-02-21T00:34:50;3.63;;;0.90;;
26920;SDS011;14483;47.844;9.660;2024-02-21T00:37:17;2.85;;;0.70;;
26920;SDS011;14483;47.844;9.660;2024-02-21T00:39:43;4.63;;;0.70;;
26920;SDS011;14483;47.844;9.660;2024-02-21T00:42:09;3.97;;;0.98;;
26920;SDS011;14483;47.844;9.660;2024-02-21T00:44:37;3.67;;;0.55;;
26920;SDS011;14483;47.844;9.660;2024-02-21T00:47:04;3.03;;;0.93;;
26920;SDS011;14483;47.844;9.660;2024-02-21T00:49:30;2.85;;;0.77;;
26920;SDS011;14483;47.844;9.660;2024-02-21T00:51:56;6.38;;;1.13;;
26920;SDS011;14483;47.844;9.660;2024-02-21T00:54:23;2.58;;;1.02;;
26920;SDS011;14483;47.844;9.660;2024-02-21T00:56:49;1.95;;;0.80;;
26920;SDS011;14483;47.844;9.660;2024-02-21T00:59:15;3.35;;;1.00;;
26920;SDS011;14483;47.844;9.660;2024-02-21T01:01:43;3.90;;;0.70;;
26920;SDS011;14483;47.844;9.660;2024-02-21T01:04:09;4.18;;;0.85;;
26920;SDS011;14483;47.844;9.660;2024-02-21T01:06:36;4.57;;;1.33;;
26920;SDS011;14483;47.844;9.660;2024-02-21T01:09:02;7.38;;;1.13;;
26920;SDS011;14483;47.844;9.660;2024-02-21T01:11:29;3.42;;;0.90;;
26920;SDS011;14483;47.844;9.660;2024-02-21T01:13:55;2.45;;;0.60;;
26920;SDS011;14483;47.844;9.660;2024-02-21T01:16:22;2.15;;;0.70;;
26920;SDS011;14483;47.844;9.660;2024-02-21T01:18:49;1.77;;;0.55;;
26920;SDS011;14483;47.844;9.660;2024-02-21T01:21:16;7.15;;;0.95;;
26920;SDS011;14483;47.844;9.660;2024-02-21T01:23:42;3.05;;;0.75;;
26920;SDS011;14483;47.844;9.660;2024-02-21T01:26:08;1.90;;;0.70;;
26920;SDS011;14483;47.844;9.660;2024-02-21T01:28:38;3.35;;;0.88;;
26920;SDS011;14483;47.844;9.660;2024-02-21T01:31:04;3.03;;;1.00;;
26920;SDS011;14483;47.844;9.660;2024-02-21T01:33:30;3.58;;;1.05;;
26920;SDS011;14483;47.844;9.660;2024-02-21T01:36:01;1.20;;;0.60;;
26920;SDS011;14483;47.844;9.660;2024-02-21T01:38:27;1.77;;;0.85;;
26920;SDS011;14483;47.844;9.660;2024-02-21T01:40:54;4.53;;;1.10;;
26920;SDS011;14483;47.844;9.660;2024-02-21T01:43:20;8.13;;;1.15;;
26920;SDS011;14483;47.844;9.660;2024-02-21T01:45:48;4.95;;;1.35;;
26920;SDS011;14483;47.844;9.660;2024-02-21T01:48:15;5.90;;;1.25;;
26920;SDS011;14483;47.844;9.660;2024-02-21T01:50:41;2.60;;;1.02;;
26920;SDS011;14483;47.844;9.660;2024-02-21T01:53:09;3.33;;;1.13;;
26920;SDS011;14483;47.844;9.660;2024-02-21T01:55:35;5.05;;;1.60;;
26920;SDS011;14483;47.844;9.660;2024-02-21T01:58:02;3.67;;;0.80;;
26920;SDS011;14483;47.844;9.660;2024-02-21T02:00:28;5.80;;;0.77;;
26920;SDS011;14483;47.844;9.660;2024-02-21T02:02:55;1.40;;;0.60;;
26920;SDS011;14483;47.844;9.660;2024-02-21T02:05:22;5.22;;;0.75;;
26920;SDS011;14483;47.844;9.660;2024-02-21T02:07:48;4.10;;;1.10;;
26920;SDS011;14483;47.844;9.660;2024-02-21T02:10:16;3.25;;;1.05;;
26920;SDS011;14483;47.844;9.660;2024-02-21T02:12:42;4.22;;;1.23;;
26920;SDS011;14483;47.844;9.660;2024-02-21T02:15:09;1.85;;;0.82;;
26920;SDS011;14483;47.844;9.660;2024-02-21T02:17:35;3.88;;;1.05;;
26920;SDS011;14483;47.844;9.660;2024-02-21T02:20:02;2.67;;;0.90;;
26920;SDS011;14483;47.844;9.660;2024-02-21T02:22:30;2.08;;;0.75;;
26920;SDS011;14483;47.844;9.660;2024-02-21T02:24:59;5.78;;;0.90;;
26920;SDS011;14483;47.844;9.660;2024-02-21T02:27:25;2.13;;;0.82;;
26920;SDS011;14483;47.844;9.660;2024-02-21T02:29:52;1.73;;;0.57;;
26920;SDS011;14483;47.844;9.660;2024-02-21T02:32:18;2.55;;;0.75;;
26920;SDS011;14483;47.844;9.660;2024-02-21T02:34:44;3.08;;;1.00;;
26920;SDS011;14483;47.844;9.660;2024-02-21T02:37:11;1.77;;;0.70;;
26920;SDS011;14483;47.844;9.660;2024-02-21T02:39:37;1.90;;;0.60;;
26920;SDS011;14483;47.844;9.660;2024-02-21T02:42:05;4.90;;;0.80;;
26920;SDS011;14483;47.844;9.660;2024-02-21T02:44:31;1.77;;;0.50;;
26920;SDS011;14483;47.844;9.660;2024-02-21T02:46:58;5.00;;;0.90;;
26920;SDS011;14483;47.844;9.660;2024-02-21T02:49:24;2.90;;;0.88;;
26920;SDS011;14483;47.844;9.660;2024-02-21T02:51:50;2.60;;;0.73;;
26920;SDS011;14483;47.844;9.660;2024-02-21T02:54:17;2.53;;;0.80;;
26920;SDS011;14483;47.844;9.660;2024-02-21T02:56:43;8.82;;;1.20;;
26920;SDS011;14483;47.844;9.660;2024-02-21T02:59:11;3.58;;;1.15;;
26920;SDS011;14483;47.844;9.660;2024-02-21T03:01:38;2.95;;;0.70;;
26920;SDS011;14483;47.844;9.660;2024-02-21T03:04:04;2.63;;;0.95;;
26920;SDS011;14483;47.844;9.660;2024-02-21T03:06:30;2.92;;;0.80;;
26920;SDS011;14483;47.844;9.660;2024-02-21T03:08:57;2.28;;;0.60;;
26920;SDS011;14483;47.844;9.660;2024-02-21T03:11:25;3.92;;;1.13;;
26920;SDS011;14483;47.844;9.660;2024-02-21T03:13:54;8.18;;;1.73;;
26920;SDS011;14483;47.844;9.660;2024-02-21T03:16:21;5.50;;;1.60;;
26920;SDS011;14483;47.844;9.660;2024-02-21T03:18:48;7.05;;;1.90;;
26920;SDS011;14483;47.844;9.660;2024-02-21T03:21:14;6.57;;;1.65;;
26920;SDS011;14483;47.844;9.660;2024-02-21T03:23:41;6.10;;;1.70;;
26920;SDS011;14483;47.844;9.660;2024-02-21T03:26:07;8.68;;;1.38;;
26920;SDS011;14483;47.844;9.660;2024-02-21T03:28:33;4.13;;;1.05;;
26920;SDS011;14483;47.844;9.660;2024-02-21T03:31:00;3.53;;;1.20;;
26920;SDS011;14483;47.844;9.660;2024-02-21T03:33:27;2.25;;;0.68;;
26920;SDS011;14483;47.844;9.660;2024-02-21T03:35:55;2.28;;;0.80;;
26920;SDS011;14483;47.844;9.660;2024-02-21T03:38:21;5.55;;;0.90;;
26920;SDS011;14483;47.844;9.660;2024-02-21T03:40:47;2.85;;;0.95;;
26920;SDS011;14483;47.844;9.660;2024-02-21T03:43:14;4.40;;;1.25;;
26920;SDS011;14483;47.844;9.660;2024-02-21T03:45:40;2.78;;;0.80;;
26920;SDS011;14483;47.844;9.660;2024-02-21T03:48:06;2.45;;;0.75;;
26920;SDS011;14483;47.844;9.660;2024-02-21T03:50:34;3.10;;;0.93;;
26920;SDS011;14483;47.844;9.660;2024-02-21T03:53:00;5.43;;;1.10;;
26920;SDS011;14483;47.844;9.660;2024-02-21T03:55:27;4.30;;;0.98;;
26920;SDS011;14483;47.844;9.660;2024-02-21T03:57:53;6.45;;;1.38;;
26920;SDS011;14483;47.844;9.660;2024-02-21T04:00:20;7.05;;;1.15;;
26920;SDS011;14483;47.844;9.660;2024-02-21T04:02:46;6.95;;;1.40;;
26920;SDS011;14483;47.844;9.660;2024-02-21T04:05:15;4.90;;;1.20;;
26920;SDS011;14483;47.844;9.660;2024-02-21T04:07:43;4.88;;;1.00;;
26920;SDS011;14483;47.844;9.660;2024-02-21T04:10:09;10.68;;;2.50;;
26920;SDS011;14483;47.844;9.660;2024-02-21T04:12:35;9.13;;;1.60;;
26920;SDS011;14483;47.844;9.660;2024-02-21T04:15:03;2.35;;;0.95;;
26920;SDS011;14483;47.844;9.660;2024-02-21T04:17:30;2.97;;;0.88;;
26920;SDS011;14483;47.844;9.660;2024-02-21T04:20:01;2.15;;;0.63;;
26920;SDS011;14483;47.844;9.660;2024-02-21T04:22:30;3.38;;;1.05;;
26920;SDS011;14483;47.844;9.660;2024-02-21T04:24:58;3.47;;;0.70;;
26920;SDS011;14483;47.844;9.660;2024-02-21T04:27:24;1.45;;;0.85;;
26920;SDS011;14483;47.844;9.660;2024-02-21T04:29:50;2.60;;;0.82;;
26920;SDS011;14483;47.844;9.660;2024-02-21T04:32:17;4.50;;;1.15;;
26920;SDS011;14483;47.844;9.660;2024-02-21T04:34:43;3.05;;;0.73;;
26920;SDS011;14483;47.844;9.660;2024-02-21T04:37:09;1.45;;;0.60;;
26920;SDS011;14483;47.844;9.660;2024-02-21T04:39:36;1.48;;;0.60;;
26920;SDS011;14483;47.844;9.660;2024-02-21T04:42:04;2.72;;;1.23;;
26920;SDS011;14483;47.844;9.660;2024-02-21T04:44:29;6.55;;;1.40;;
26920;SDS011;14483;47.844;9.660;2024-02-21T04:46:55;8.80;;;1.77;;
26920;SDS011;14483;47.844;9.660;2024-02-21T04:49:22;2.63;;;1.13;;
26920;SDS011;14483;47.844;9.660;2024-02-21T04:51:48;3.72;;;1.75;;
26920;SDS011;14483;47.844;9.660;2024-02-21T04:54:14;6.18;;;1.75;;
26920;SDS011;14483;47.844;9.660;2024-02-21T04:56:41;5.90;;;1.75;;
26920;SDS011;14483;47.844;9.660;2024-02-21T04:59:08;3.92;;;1.73;;
26920;SDS011;14483;47.844;9.660;2024-02-21T05:01:35;6.97;;;1.80;;
26920;SDS011;14483;47.844;9.660;2024-02-21T05:04:01;5.63;;;1.70;;
26920;SDS011;14483;47.844;9.660;2024-02-21T05:06:28;3.20;;;1.35;;
26920;SDS011;14483;47.844;9.660;2024-02-21T05:08:54;6.32;;;1.70;;
26920;SDS011;14483;47.844;9.660;2024-02-21T05:11:22;6.70;;;2.00;;
26920;SDS011;14483;47.844;9.660;2024-02-21T05:13:49;5.20;;;1.88;;
26920;SDS011;14483;47.844;9.660;2024-02-21T05:16:17;6.43;;;2.38;;
26920;SDS011;14483;47.844;9.660;2024-02-21T05:18:44;6.60;;;2.05;;
26920;SDS011;14483;47.844;9.660;2024-02-21T05:21:10;5.50;;;1.35;;
26920;SDS011;14483;47.844;9.660;2024-02-21T05:23:37;3.28;;;1.10;;
26920;SDS011;14483;47.844;9.660;2024-02-21T05:26:04;3.85;;;1.30;;
26920;SDS011;14483;47.844;9.660;2024-02-21T05:28:31;2.03;;;0.90;;
26920;SDS011;14483;47.844;9.660;2024-02-21T05:30:57;2.50;;;1.30;;
26920;SDS011;14483;47.844;9.660;2024-02-21T05:33:25;7.40;;;2.30;;
26920;SDS011;14483;47.844;9.660;2024-02-21T05:35:51;3.10;;;1.38;;
26920;SDS011;14483;47.844;9.660;2024-02-21T05:38:18;3.30;;;1.45;;
26920;SDS011;14483;47.844;9.660;2024-02-21T05:40:44;2.75;;;1.23;;
26920;SDS011;14483;47.844;9.660;2024-02-21T05:43:11;8.65;;;3.72;;
26920;SDS011;14483;47.844;9.660;2024-02-21T05:45:37;11.10;;;4.32;;
26920;SDS011;14483;47.844;9.660;2024-02-21T05:48:04;6.00;;;2.95;;
26920;SDS011;14483;47.844;9.660;2024-02-21T05:50:31;12.73;;;3.72;;
26920;SDS011;14483;47.844;9.660;2024-02-21T05:52:58;9.93;;;4.55;;
26920;SDS011;14483;47.844;9.660;2024-02-21T05:55:24;7.60;;;3.92;;
26920;SDS011;14483;47.844;9.660;2024-02-21T05:57:53;8.13;;;4.03;;
26920;SDS011;14483;47.844;9.660;2024-02-21T06:00:19;10.25;;;4.28;;
26920;SDS011;14483;47.844;9.660;2024-02-21T06:02:46;6.80;;;3.35;;
26920;SDS011;14483;47.844;9.660;2024-02-21T06:05:12;4.25;;;2.00;;
26920;SDS011;14483;47.844;9.660;2024-02-21T06:07:40;1.02;;;0.70;;
26920;SDS011;14483;47.844;9.660;2024-02-21T06:10:06;3.60;;;0.93;;
26920;SDS011;14483;47.844;9.660;2024-02-21T06:12:33;5.43;;;0.93;;
26920;SDS011;14483;47.844;9.660;2024-02-21T06:14:59;2.35;;;0.90;;
26920;SDS011;14483;47.844;9.660;2024-02-21T06:17:26;6.22;;;0.98;;
26920;SDS011;14483;47.844;9.660;2024-02-21T06:19:52;3.80;;;1.00;;
26920;SDS011;14483;47.844;9.660;2024-02-21T06:22:18;3.38;;;1.30;;
26920;SDS011;14483;47.844;9.660;2024-02-21T06:24:46;2.95;;;1.00;;
26920;SDS011;14483;47.844;9.660;2024-02-21T06:27:12;2.58;;;0.90;;
26920;SDS011;14483;47.844;9.660;2024-02-21T06:29:40;4.35;;;1.20;;
26920;SDS011;14483;47.844;9.660;2024-02-21T06:32:06;1.38;;;0.60;;
26920;SDS011;14483;47.844;9.660;2024-02-21T06:34:32;2.28;;;0.70;;
26920;SDS011;14483;47.844;9.660;2024-02-21T06:36:59;3.35;;;0.80;;
26920;SDS011;14483;47.844;9.660;2024-02-21T06:39:25;2.05;;;0.75;;
26920;SDS011;14483;47.844;9.660;2024-02-21T06:41:55;3.25;;;0.55;;
26920;SDS011;14483;47.844;9.660;2024-02-21T06:44:21;2.95;;;0.80;;
26920;SDS011;14483;47.844;9.660;2024-02-21T06:46:48;2.35;;;0.70;;
26920;SDS011;14483;47.844;9.660;2024-02-21T06:49:14;2.45;;;0.30;;
26920;SDS011;14483;47.844;9.660;2024-02-21T06:51:41;0.57;;;0.40;;
26920;SDS011;14483;47.844;9.660;2024-02-21T06:54:08;1.75;;;0.35;;
26920;SDS011;14483;47.844;9.660;2024-02-21T06:56:35;2.92;;;0.75;;
26920;SDS011;14483;47.844;9.660;2024-02-21T06:59:03;3.47;;;0.82;;
26920;SDS011;14483;47.844;9.660;2024-02-21T07:01:30;2.50;;;1.48;;
26920;SDS011;14483;47.844;9.660;2024-02-21T07:03:56;5.63;;;1.48;;
26920;SDS011;14483;47.844;9.660;2024-02-21T07:06:23;6.05;;;2.03;;
26920;SDS011;14483;47.844;9.660;2024-02-21T07:08:49;3.15;;;1.77;;
26920;SDS011;14483;47.844;9.660;2024-02-21T07:11:16;4.65;;;2.22;;
26920;SDS011;14483;47.844;9.660;2024-02-21T07:13:43;6.03;;;2.10;;
26920;SDS011;14483;47.844;9.660;2024-02-21T07:16:09;6.05;;;2.50;;
26920;SDS011;14483;47.844;9.660;2024-02-21T07:18:36;5.05;;;1.85;;
26920;SDS011;14483;47.844;9.660;2024-02-21T07:21:03;8.82;;;2.50;;
26920;SDS011;14483;47.844;9.660;2024-02-21T07:23:29;5.45;;;2.55;;
26920;SDS011;14483;47.844;9.660;2024-02-21T07:25:55;9.48;;;3.20;;
26920;SDS011;14483;47.844;9.660;2024-02-21T07:28:22;10.32;;;2.95;;
26920;SDS011;14483;47.844;9.660;2024-02-21T07:30:48;8.13;;;3.17;;
26920;SDS011;14483;47.844;9.660;2024-02-21T07:33:16;10.85;;;4.45;;
26920;SDS011;14483;47.844;9.660;2024-02-21T07:35:42;11.93;;;4.90;;
26920;SDS011;14483;47.844;9.660;2024-02-21T07:38:10;6.10;;;2.80;;
26920;SDS011;14483;47.844;9.660;2024-02-21T07:40:37;7.15;;;3.47;;
26920;SDS011;14483;47.844;9.660;2024-02-21T07:43:04;5.72;;;3.08;;
26920;SDS011;14483;47.844;9.660;2024-02-21T07:45:30;5.88;;;2.58;;
26920;SDS011;14483;47.844;9.660;2024-02-21T07:47:56;8.48;;;2.20;;
26920;SDS011;14483;47.844;9.660;2024-02-21T07:50:24;4.20;;;1.92;;
26920;SDS011;14483;47.844;9.660;2024-02-21T07:52:50;6.22;;;1.73;;
26920;SDS011;14483;47.844;9.660;2024-02-21T07:55:17;3.35;;;1.42;;
26920;SDS011;14483;47.844;9.660;2024-02-21T07:57:43;7.00;;;2.95;;
26920;SDS011;14483;47.844;9.660;2024-02-21T08:00:10;7.13;;;3.50;;
26920;SDS011;14483;47.844;9.660;2024-02-21T08:02:42;7.22;;;2.28;;
26920;SDS011;14483;47.844;9.660;2024-02-21T08:05:09;7.43;;;2.42;;
26920;SDS011;14483;47.844;9.660;2024-02-21T08:07:38;7.68;;;4.28;;
26920;SDS011;14483;47.844;9.660;2024-02-21T08:10:05;7.40;;;3.20;;
26920;SDS011;14483;47.844;9.660;2024-02-21T08:12:32;7.60;;;3.05;;
26920;SDS011;14483;47.844;9.660;2024-02-21T08:14:58;5.18;;;2.30;;
26920;SDS011;14483;47.844;9.660;2024-02-21T08:17:25;2.10;;;1.20;;
26920;SDS011;14483;47.844;9.660;2024-02-21T08:19:51;4.25;;;1.30;;
26920;SDS011;14483;47.844;9.660;2024-02-21T08:22:18;5.03;;;1.10;;
26920;SDS011;14483;47.844;9.660;2024-02-21T08:24:45;3.83;;;1.10;;
26920;SDS011;14483;47.844;9.660;2024-02-21T08:27:12;2.20;;;0.73;;
26920;SDS011;14483;47.844;9.660;2024-02-21T08:29:38;4.53;;;1.00;;
26920;SDS011;14483;47.844;9.660;2024-02-21T08:32:04;0.90;;;0.60;;
26920;SDS011;14483;47.844;9.660;2024-02-21T08:34:31;1.95;;;0.60;;
26920;SDS011;14483;47.844;9.660;2024-02-21T08:36:59;1.98;;;0.80;;
26920;SDS011;14483;47.844;9.660;2024-02-21T08:39:25;1.45;;;0.55;;
26920;SDS011;14483;47.844;9.660;2024-02-21T08:41:55;1.83;;;0.90;;
26920;SDS011;14483;47.844;9.660;2024-02-21T08:44:21;3.42;;;1.13;;
26920;SDS011;14483;47.844;9.660;2024-02-21T08:46:48;1.80;;;0.95;;
26920;SDS011;14483;47.844;9.660;2024-02-21T08:49:14;2.08;;;0.90;;
26920;SDS011;14483;47.844;9.660;2024-02-21T08:51:40;4.57;;;0.90;;
26920;SDS011;14483;47.844;9.660;2024-02-21T08:54:08;2.40;;;0.88;;
26920;SDS011;14483;47.844;9.660;2024-02-21T08:56:34;1.95;;;0.80;;
26920;SDS011;14483;47.844;9.660;2024-02-21T08:59:02;2.67;;;1.00;;
26920;SDS011;14483;47.844;9.660;2024-02-21T09:01:28;2.45;;;0.93;;
26920;SDS011;14483;47.844;9.660;2024-02-21T09:03:55;1.80;;;0.95;;
26920;SDS011;14483;47.844;9.660;2024-02-21T09:06:21;2.03;;;1.10;;
26920;SDS011;14483;47.844;9.660;2024-02-21T09:08:48;4.95;;;1.15;;
26920;SDS011;14483;47.844;9.660;2024-02-21T09:11:14;4.60;;;1.60;;
26920;SDS011;14483;47.844;9.660;2024-02-21T09:13:41;2.20;;;1.15;;
26920;SDS011;14483;47.844;9.660;2024-02-21T09:16:08;2.42;;;1.08;;
26920;SDS011;14483;47.844;9.660;2024-02-21T09:18:35;2.50;;;1.05;;
26920;SDS011;14483;47.844;9.660;2024-02-21T09:21:02;2.15;;;1.15;;
26920;SDS011;14483;47.844;9.660;2024-02-21T09:23:28;2.50;;;1.30;;
26920;SDS011;14483;47.844;9.660;2024-02-21T09:25:56;4.68;;;1.65;;
26920;SDS011;14483;47.844;9.660;2024-02-21T09:28:25;4.45;;;1.27;;
26920;SDS011;14483;47.844;9.660;2024-02-21T09:30:51;4.43;;;1.00;;
26920;SDS011;14483;47.844;9.660;2024-02-21T09:33:19;2.85;;;1.30;;
26920;SDS011;14483;47.844;9.660;2024-02-21T09:35:45;2.83;;;1.15;;
26920;SDS011;14483;47.844;9.660;2024-02-21T09:38:12;2.65;;;1.27;;
26920;SDS011;14483;47.844;9.660;2024-02-21T09:40:38;2.72;;;1.20;;
26920;SDS011;14483;47.844;9.660;2024-02-21T09:43:07;5.03;;;1.23;;
26920;SDS011;14483;47.844;9.660;2024-02-21T09:45:34;3.28;;;1.45;;
26920;SDS011;14483;47.844;9.660;2024-02-21T09:48:05;3.15;;;1.30;;
26920;SDS011;14483;47.844;9.660;2024-02-21T09:50:36;4.15;;;1.52;;
26920;SDS011;14483;47.844;9.660;2024-02-21T09:53:05;4.45;;;1.40;;
26920;SDS011;14483;47.844;9.660;2024-02-21T09:55:32;5.10;;;1.40;;
26920;SDS011;14483;47.844;9.660;2024-02-21T09:57:59;3.83;;;1.40;;
26920;SDS011;14483;47.844;9.660;2024-02-21T10:00:28;3.50;;;1.00;;
26920;SDS011;14483;47.844;9.660;2024-02-21T10:02:54;4.10;;;1.80;;
26920;SDS011;14483;47.844;9.660;2024-02-21T10:05:21;4.93;;;1.50;;
26920;SDS011;14483;47.844;9.660;2024-02-21T10:07:51;3.25;;;1.17;;
26920;SDS011;14483;47.844;9.660;2024-02-21T10:10:17;3.42;;;1.10;;
26920;SDS011;14483;47.844;9.660;2024-02-21T10:12:49;4.53;;;1.20;;
26920;SDS011;14483;47.844;9.660;2024-02-21T10:15:19;1.40;;;0.82;;
26920;SDS011;14483;47.844;9.660;2024-02-21T10:17:46;2.80;;;1.10;;
26920;SDS011;14483;47.844;9.660;2024-02-21T10:20:12;4.60;;;1.10;;
26920;SDS011;14483;47.844;9.660;2024-02-21T10:22:39;3.53;;;0.80;;
26920;SDS011;14483;47.844;9.660;2024-02-21T10:25:10;3.17;;;0.75;;
26920;SDS011;14483;47.844;9.660;2024-02-21T10:27:37;2.55;;;0.90;;
26920;SDS011;14483;47.844;9.660;2024-02-21T10:30:04;3.40;;;0.98;;
26920;SDS011;14483;47.844;9.660;2024-02-21T10:32:30;4.85;;;0.90;;
26920;SDS011;14483;47.844;9.660;2024-02-21T10:35:00;1.35;;;0.65;;
26920;SDS011;14483;47.844;9.660;2024-02-21T10:37:28;1.33;;;0.57;;
26920;SDS011;14483;47.844;9.660;2024-02-21T10:39:54;5.07;;;0.82;;
26920;SDS011;14483;47.844;9.660;2024-02-21T10:42:23;4.43;;;0.70;;
26920;SDS011;14483;47.844;9.660;2024-02-21T10:44:52;1.20;;;0.50;;
26920;SDS011;14483;47.844;9.660;2024-02-21T10:47:19;1.60;;;0.70;;
26920;SDS011;14483;47.844;9.660;2024-02-21T10:49:49;22.85;;;1.58;;
26920;SDS011;14483;47.844;9.660;2024-02-21T10:52:17;2.05;;;0.90;;
26920;SDS011;14483;47.844;9.660;2024-02-21T10:54:51;2.97;;;0.82;;
26920;SDS011;14483;47.844;9.660;2024-02-21T10:57:19;1.42;;;0.65;;
26920;SDS011;14483;47.844;9.660;2024-02-21T10:59:48;1.75;;;0.55;;
26920;SDS011;14483;47.844;9.660;2024-02-21T11:02:15;2.03;;;0.70;;
26920;SDS011;14483;47.844;9.660;2024-02-21T11:04:41;4.90;;;1.08;;
26920;SDS011;14483;47.844;9.660;2024-02-21T11:07:08;3.63;;;0.50;;
26920;SDS011;14483;47.844;9.660;2024-02-21T11:09:34;1.88;;;0.47;;
26920;SDS011;14483;47.844;9.660;2024-02-21T11:12:02;1.15;;;0.52;;
26920;SDS011;14483;47.844;9.660;2024-02-21T11:14:29;3.20;;;0.55;;
26920;SDS011;14483;47.844;9.660;2024-02-21T11:16:58;2.25;;;0.57;;
26920;SDS011;14483;47.844;9.660;2024-02-21T11:19:25;2.20;;;0.93;;
26920;SDS011;14483;47.844;9.660;2024-02-21T11:21:52;4.20;;;1.55;;
26920;SDS011;14483;47.844;9.660;2024-02-21T11:24:26;3.78;;;0.70;;
26920;SDS011;14483;47.844;9.660;2024-02-21T11:29:22;3.45;;;0.60;;
26920;SDS011;14483;47.844;9.660;2024-02-21T11:31:49;2.58;;;0.43;;
26920;SDS011;14483;47.844;9.660;2024-02-21T11:34:18;5.68;;;0.60;;
26920;SDS011;14483;47.844;9.660;2024-02-21T11:36:48;2.33;;;0.57;;
26920;SDS011;14483;47.844;9.660;2024-02-21T11:39:18;3.85;;;0.95;;
26920;SDS011;14483;47.844;9.660;2024-02-21T11:41:45;0.80;;;0.32;;
26920;SDS011;14483;47.844;9.660;2024-02-21T11:44:11;1.15;;;0.60;;
26920;SDS011;14483;47.844;9.660;2024-02-21T11:46:38;3.42;;;0.80;;
26920;SDS011;14483;47.844;9.660;2024-02-21T11:49:04;0.73;;;0.40;;
26920;SDS011;14483;47.844;9.660;2024-02-21T11:51:32;1.10;;;0.50;;
26920;SDS011;14483;47.844;9.660;2024-02-21T11:53:58;2.90;;;0.60;;
26920;SDS011;14483;47.844;9.660;2024-02-21T11:56:25;1.33;;;0.60;;
26920;SDS011;14483;47.844;9.660;2024-02-21T11:58:51;2.58;;;0.60;;
26920;SDS011;14483;47.844;9.660;2024-02-21T12:01:17;2.80;;;0.47;;
26920;SDS011;14483;47.844;9.660;2024-02-21T12:03:44;3.28;;;0.90;;
26920;SDS011;14483;47.844;9.660;2024-02-21T12:06:15;0.90;;;0.50;;
26920;SDS011;14483;47.844;9.660;2024-02-21T12:08:45;1.75;;;0.50;;
26920;SDS011;14483;47.844;9.660;2024-02-21T12:11:16;4.18;;;0.90;;
26920;SDS011;14483;47.844;9.660;2024-02-21T12:13:43;1.52;;;0.70;;
26920;SDS011;14483;47.844;9.660;2024-02-21T12:16:09;2.97;;;0.60;;
26920;SDS011;14483;47.844;9.660;2024-02-21T12:18:36;1.10;;;0.50;;
26920;SDS011;14483;47.844;9.660;2024-02-21T12:21:04;1.92;;;0.52;;
26920;SDS011;14483;47.844;9.660;2024-02-21T12:23:30;1.52;;;0.60;;
26920;SDS011;14483;47.844;9.660;2024-02-21T12:26:00;1.42;;;0.60;;
26920;SDS011;14483;47.844;9.660;2024-02-21T12:28:26;2.47;;;0.50;;
26920;SDS011;14483;47.844;9.660;2024-02-21T12:30:52;2.97;;;0.68;;
26920;SDS011;14483;47.844;9.660;2024-02-21T12:33:19;1.73;;;0.30;;
26920;SDS011;14483;47.844;9.660;2024-02-21T12:35:45;2.78;;;0.60;;
26920;SDS011;14483;47.844;9.660;2024-02-21T12:38:12;1.00;;;0.45;;
26920;SDS011;14483;47.844;9.660;2024-02-21T12:40:38;1.42;;;0.60;;
26920;SDS011;14483;47.844;9.660;2024-02-21T12:43:06;1.20;;;0.50;;
26920;SDS011;14483;47.844;9.660;2024-02-21T12:45:33;4.35;;;0.85;;
26920;SDS011;14483;47.844;9.660;2024-02-21T12:47:59;2.45;;;0.50;;
26920;SDS011;14483;47.844;9.660;2024-02-21T12:50:26;2.28;;;0.63;;
26920;SDS011;14483;47.844;9.660;2024-02-21T12:52:52;1.27;;;0.60;;
26920;SDS011;14483;47.844;9.660;2024-02-21T12:55:18;3.35;;;0.60;;
26920;SDS011;14483;47.844;9.660;2024-02-21T12:57:45;3.00;;;0.73;;
26920;SDS011;14483;47.844;9.660;2024-02-21T13:00:13;3.90;;;0.95;;
26920;SDS011;14483;47.844;9.660;2024-02-21T13:02:39;2.40;;;0.82;;
26920;SDS011;14483;47.844;9.660;2024-02-21T13:05:06;3.38;;;0.80;;
26920;SDS011;14483;47.844;9.660;2024-02-21T13:07:33;4.05;;;0.80;;
26920;SDS011;14483;47.844;9.660;2024-02-21T13:09:59;3.60;;;1.20;;
26920;SDS011;14483;47.844;9.660;2024-02-21T13:12:25;2.05;;;0.73;;
26920;SDS011;14483;47.844;9.660;2024-02-21T13:14:52;1.90;;;0.73;;
26920;SDS011;14483;47.844;9.660;2024-02-21T13:17:20;1.92;;;0.77;;
26920;SDS011;14483;47.844;9.660;2024-02-21T13:19:47;3.65;;;0.70;;
26920;SDS011;14483;47.844;9.660;2024-02-21T13:22:13;3.22;;;1.05;;
26920;SDS011;14483;47.844;9.660;2024-02-21T13:24:40;4.20;;;0.60;;
26920;SDS011;14483;47.844;9.660;2024-02-21T13:27:06;2.45;;;1.20;;
26920;SDS011;14483;47.844;9.660;2024-02-21T13:29:32;2.75;;;1.05;;
26920;SDS011;14483;47.844;9.660;2024-02-21T13:31:59;2.75;;;1.02;;
26920;SDS011;14483;47.844;9.660;2024-02-21T13:34:27;2.42;;;0.93;;
26920;SDS011;14483;47.844;9.660;2024-02-21T13:36:53;1.75;;;0.55;;
26920;SDS011;14483;47.844;9.660;2024-02-21T13:39:20;3.35;;;0.80;;
26920;SDS011;14483;47.844;9.660;2024-02-21T13:41:46;1.75;;;0.85;;
26920;SDS011;14483;47.844;9.660;2024-02-21T13:44:12;1.30;;;0.70;;
26920;SDS011;14483;47.844;9.660;2024-02-21T13:46:39;1.92;;;0.90;;
26920;SDS011;14483;47.844;9.660;2024-02-21T13:49:05;3.35;;;0.80;;
26920;SDS011;14483;47.844;9.660;2024-02-21T13:51:33;3.95;;;0.70;;
26920;SDS011;14483;47.844;9.660;2024-02-21T13:54:01;1.73;;;0.70;;
26920;SDS011;14483;47.844;9.660;2024-02-21T13:56:28;3.30;;;0.85;;
26920;SDS011;14483;47.844;9.660;2024-02-21T13:58:54;1.60;;;0.95;;
26920;SDS011;14483;47.844;9.660;2024-02-21T14:01:20;2.67;;;1.00;;
26920;SDS011;14483;47.844;9.660;2024-02-21T14:03:47;4.20;;;1.08;;
26920;SDS011;14483;47.844;9.660;2024-02-21T14:06:13;5.32;;;1.02;;
26920;SDS011;14483;47.844;9.660;2024-02-21T14:08:41;4.07;;;1.27;;
26920;SDS011;14483;47.844;9.660;2024-02-21T14:11:07;4.43;;;1.17;;
26920;SDS011;14483;47.844;9.660;2024-02-21T14:13:34;4.65;;;1.20;;
26920;SDS011;14483;47.844;9.660;2024-02-21T14:16:00;3.75;;;0.75;;
26920;SDS011;14483;47.844;9.660;2024-02-21T14:18:27;2.97;;;1.05;;
26920;SDS011;14483;47.844;9.660;2024-02-21T14:20:53;1.92;;;0.93;;
26920;SDS011;14483;47.844;9.660;2024-02-21T14:23:19;2.25;;;0.70;;
26920;SDS011;14483;47.844;9.660;2024-02-21T14:25:48;2.83;;;0.73;;
26920;SDS011;14483;47.844;9.660;2024-02-21T14:28:15;3.25;;;0.73;;
26920;SDS011;14483;47.844;9.660;2024-02-21T14:30:43;3.08;;;1.00;;
26920;SDS011;14483;47.844;9.660;2024-02-21T14:33:09;4.07;;;0.93;;
26920;SDS011;14483;47.844;9.660;2024-02-21T14:35:35;2.05;;;0.70;;
26920;SDS011;14483;47.844;9.660;2024-02-21T14:38:02;2.45;;;0.77;;
26920;SDS011;14483;47.844;9.660;2024-02-21T14:40:28;2.08;;;0.80;;
26920;SDS011;14483;47.844;9.660;2024-02-21T14:42:57;2.75;;;0.60;;
26920;SDS011;14483;47.844;9.660;2024-02-21T14:45:23;3.53;;;0.75;;
26920;SDS011;14483;47.844;9.660;2024-02-21T14:47:49;1.85;;;0.50;;